Lewiston Woodville, North Carolina
Current Conditions -  °F | °C
As of 11:55 AM on Monday 22 Dec 2014 (Local Time) from KASJ Reporting Station
Overcast Overcast  
Wind Chill: 37°   Ceiling: 500
Heat Index: 42°   Visibility: 10mi
Dew Point: 41°   Wind: 9mph
Humidity: 95%   Direction: 20°NNE
Pressure: 30.11"   Gusts: NA
Location:  36.11°N, 77.18°W
Report Text: KASJ 221655Z AUTO 02008KT 10SM OVC005 06/05 A3011 RMK AO2 T00580050
Loading
Personal Weather Stations






























Interactive Weather Map New forecast layout! Learn more

10-Day Weather Forecast

Advertisements
Track Severe Weather on mobile